sensor_id;sensor_type;location;lat;lon;timestamp;temperature;humidity
6740;DHT22;3407;49.882;10.920;2022-12-29T00:01:32;7.20;99.90
6740;DHT22;3407;49.882;10.920;2022-12-29T00:06:28;7.30;1.00
6740;DHT22;3407;49.882;10.920;2022-12-29T00:11:26;7.40;1.00
6740;DHT22;3407;49.882;10.920;2022-12-29T00:16:22;7.40;1.00
6740;DHT22;3407;49.882;10.920;2022-12-29T00:21:20;7.40;1.00
6740;DHT22;3407;49.882;10.920;2022-12-29T00:26:35;7.50;99.90
6740;DHT22;3407;49.882;10.920;2022-12-29T00:31:49;7.50;99.90
6740;DHT22;3407;49.882;10.920;2022-12-29T00:37:03;7.50;25.40
6740;DHT22;3407;49.882;10.920;2022-12-29T00:42:08;7.50;99.90
6740;DHT22;3407;49.882;10.920;2022-12-29T00:47:33;7.60;1.00
6740;DHT22;3407;49.882;10.920;2022-12-29T00:52:28;7.50;99.90
6740;DHT22;3407;49.882;10.920;2022-12-29T00:57:24;7.50;1.00
6740;DHT22;3407;49.882;10.920;2022-12-29T01:02:19;7.40;99.90
6740;DHT22;3407;49.882;10.920;2022-12-29T01:07:15;7.50;99.90
6740;DHT22;3407;49.882;10.920;2022-12-29T01:12:11;7.50;1.00
6740;DHT22;3407;49.882;10.920;2022-12-29T01:17:06;7.50;1.00
6740;DHT22;3407;49.882;10.920;2022-12-29T01:22:02;7.60;1.00
6740;DHT22;3407;49.882;10.920;2022-12-29T01:26:57;7.70;1.00
6740;DHT22;3407;49.882;10.920;2022-12-29T01:31:53;7.80;1.00
6740;DHT22;3407;49.882;10.920;2022-12-29T01:36:48;7.90;1.00
6740;DHT22;3407;49.882;10.920;2022-12-29T01:41:44;7.90;1.00
6740;DHT22;3407;49.882;10.920;2022-12-29T01:46:42;7.90;1.00
6740;DHT22;3407;49.882;10.920;2022-12-29T01:51:42;8.00;99.90
6740;DHT22;3407;49.882;10.920;2022-12-29T01:56:39;8.20;1.00
6740;DHT22;3407;49.882;10.920;2022-12-29T02:01:35;8.20;99.90
6740;DHT22;3407;49.882;10.920;2022-12-29T02:06:35;8.20;99.90
6740;DHT22;3407;49.882;10.920;2022-12-29T02:11:32;8.20;99.90
6740;DHT22;3407;49.882;10.920;2022-12-29T02:32:37;8.20;1.00
6740;DHT22;3407;49.882;10.920;2022-12-29T02:37:56;8.20;1.00
6740;DHT22;3407;49.882;10.920;2022-12-29T02:53:14;8.50;99.90
6740;DHT22;3407;49.882;10.920;2022-12-29T02:58:20;8.60;1.00
6740;DHT22;3407;49.882;10.920;2022-12-29T03:03:38;8.70;99.90
6740;DHT22;3407;49.882;10.920;2022-12-29T03:08:44;8.70;1.00
6740;DHT22;3407;49.882;10.920;2022-12-29T03:13:49;8.80;99.90
6740;DHT22;3407;49.882;10.920;2022-12-29T03:19:25;8.80;99.90
6740;DHT22;3407;49.882;10.920;2022-12-29T03:24:27;8.80;99.20
6740;DHT22;3407;49.882;10.920;2022-12-29T03:29:24;8.80;99.90
6740;DHT22;3407;49.882;10.920;2022-12-29T03:34:22;8.70;11.40
6740;DHT22;3407;49.882;10.920;2022-12-29T03:39:22;8.70;99.90
6740;DHT22;3407;49.882;10.920;2022-12-29T03:44:18;8.50;99.90
6740;DHT22;3407;49.882;10.920;2022-12-29T03:49:13;8.20;99.90
6740;DHT22;3407;49.882;10.920;2022-12-29T03:54:09;8.10;1.00
6740;DHT22;3407;49.882;10.920;2022-12-29T03:59:04;8.10;99.90
6740;DHT22;3407;49.882;10.920;2022-12-29T04:04:00;8.10;1.00
6740;DHT22;3407;49.882;10.920;2022-12-29T04:08:55;8.10;99.90
6740;DHT22;3407;49.882;10.920;2022-12-29T04:13:51;8.10;1.00
6740;DHT22;3407;49.882;10.920;2022-12-29T04:18:46;8.10;99.90
6740;DHT22;3407;49.882;10.920;2022-12-29T04:23:42;8.10;99.90
6740;DHT22;3407;49.882;10.920;2022-12-29T04:28:38;8.10;1.00
6740;DHT22;3407;49.882;10.920;2022-12-29T04:33:33;8.10;99.90
6740;DHT22;3407;49.882;10.920;2022-12-29T04:38:29;8.10;99.90
6740;DHT22;3407;49.882;10.920;2022-12-29T04:43:24;8.00;59.20
6740;DHT22;3407;49.882;10.920;2022-12-29T04:48:20;8.00;1.00
6740;DHT22;3407;49.882;10.920;2022-12-29T04:53:17;8.00;1.00
6740;DHT22;3407;49.882;10.920;2022-12-29T04:58:12;8.10;1.00
6740;DHT22;3407;49.882;10.920;2022-12-29T05:03:08;8.10;1.00
6740;DHT22;3407;49.882;10.920;2022-12-29T05:08:04;8.10;1.00
6740;DHT22;3407;49.882;10.920;2022-12-29T05:12:59;8.10;1.00
6740;DHT22;3407;49.882;10.920;2022-12-29T05:17:56;8.10;99.90
6740;DHT22;3407;49.882;10.920;2022-12-29T05:22:51;8.10;1.00
6740;DHT22;3407;49.882;10.920;2022-12-29T05:27:47;8.10;99.90
6740;DHT22;3407;49.882;10.920;2022-12-29T05:32:43;8.10;1.00
6740;DHT22;3407;49.882;10.920;2022-12-29T05:37:38;8.00;99.90
6740;DHT22;3407;49.882;10.920;2022-12-29T05:42:34;7.80;2.90
6740;DHT22;3407;49.882;10.920;2022-12-29T05:47:29;7.70;99.90
6740;DHT22;3407;49.882;10.920;2022-12-29T05:52:25;7.60;1.00
6740;DHT22;3407;49.882;10.920;2022-12-29T05:57:20;7.40;98.90
6740;DHT22;3407;49.882;10.920;2022-12-29T06:02:16;7.40;99.90
6740;DHT22;3407;49.882;10.920;2022-12-29T06:07:11;7.30;99.90
6740;DHT22;3407;49.882;10.920;2022-12-29T06:12:07;7.20;99.90
6740;DHT22;3407;49.882;10.920;2022-12-29T06:17:02;7.30;99.90
6740;DHT22;3407;49.882;10.920;2022-12-29T06:21:58;7.40;99.90
6740;DHT22;3407;49.882;10.920;2022-12-29T06:26:53;7.50;99.90
6740;DHT22;3407;49.882;10.920;2022-12-29T06:31:49;7.70;99.90
6740;DHT22;3407;49.882;10.920;2022-12-29T06:36:46;7.80;1.00
6740;DHT22;3407;49.882;10.920;2022-12-29T06:41:41;8.00;1.00
6740;DHT22;3407;49.882;10.920;2022-12-29T06:46:37;8.10;99.90
6740;DHT22;3407;49.882;10.920;2022-12-29T06:51:32;8.20;1.00
6740;DHT22;3407;49.882;10.920;2022-12-29T06:56:28;8.30;1.00
6740;DHT22;3407;49.882;10.920;2022-12-29T07:01:23;8.20;99.90
6740;DHT22;3407;49.882;10.920;2022-12-29T07:06:19;8.30;99.10
6740;DHT22;3407;49.882;10.920;2022-12-29T07:11:14;8.40;99.90
6740;DHT22;3407;49.882;10.920;2022-12-29T07:16:10;8.50;99.90
6740;DHT22;3407;49.882;10.920;2022-12-29T07:21:05;8.60;1.00
6740;DHT22;3407;49.882;10.920;2022-12-29T07:26:07;8.60;1.00
6740;DHT22;3407;49.882;10.920;2022-12-29T07:31:02;8.60;99.90
6740;DHT22;3407;49.882;10.920;2022-12-29T07:35:58;8.60;3.40
6740;DHT22;3407;49.882;10.920;2022-12-29T07:40:57;8.70;1.00
6740;DHT22;3407;49.882;10.920;2022-12-29T07:45:53;8.70;99.90
6740;DHT22;3407;49.882;10.920;2022-12-29T07:50:49;8.70;1.00
6740;DHT22;3407;49.882;10.920;2022-12-29T07:55:45;8.70;99.90
6740;DHT22;3407;49.882;10.920;2022-12-29T08:00:41;8.60;1.00
6740;DHT22;3407;49.882;10.920;2022-12-29T08:05:36;8.70;99.90
6740;DHT22;3407;49.882;10.920;2022-12-29T08:10:32;8.70;1.00
6740;DHT22;3407;49.882;10.920;2022-12-29T08:15:27;8.80;99.90
6740;DHT22;3407;49.882;10.920;2022-12-29T08:20:23;8.80;99.90
6740;DHT22;3407;49.882;10.920;2022-12-29T08:25:18;8.80;1.00
6740;DHT22;3407;49.882;10.920;2022-12-29T08:30:15;8.90;1.00
6740;DHT22;3407;49.882;10.920;2022-12-29T08:35:11;8.90;1.00
6740;DHT22;3407;49.882;10.920;2022-12-29T08:40:08;9.10;1.00
6740;DHT22;3407;49.882;10.920;2022-12-29T08:45:04;9.20;1.00
6740;DHT22;3407;49.882;10.920;2022-12-29T08:50:00;9.20;99.90
6740;DHT22;3407;49.882;10.920;2022-12-29T08:54:55;9.20;99.90
6740;DHT22;3407;49.882;10.920;2022-12-29T08:59:51;9.30;99.90
6740;DHT22;3407;49.882;10.920;2022-12-29T09:04:46;9.30;99.90
6740;DHT22;3407;49.882;10.920;2022-12-29T09:09:42;9.40;1.00
6740;DHT22;3407;49.882;10.920;2022-12-29T09:14:37;9.50;1.00
6740;DHT22;3407;49.882;10.920;2022-12-29T09:19:33;9.50;99.90
6740;DHT22;3407;49.882;10.920;2022-12-29T09:24:28;9.50;99.90
6740;DHT22;3407;49.882;10.920;2022-12-29T09:29:24;9.50;99.90
6740;DHT22;3407;49.882;10.920;2022-12-29T09:34:19;9.60;35.40
6740;DHT22;3407;49.882;10.920;2022-12-29T09:39:15;9.70;20.60
6740;DHT22;3407;49.882;10.920;2022-12-29T09:50:03;9.70;1.00
6740;DHT22;3407;49.882;10.920;2022-12-29T09:55:08;9.80;1.00
6740;DHT22;3407;49.882;10.920;2022-12-29T10:00:16;9.90;1.00
6740;DHT22;3407;49.882;10.920;2022-12-29T10:10:55;9.80;1.00
6740;DHT22;3407;49.882;10.920;2022-12-29T10:16:01;9.90;1.00
6740;DHT22;3407;49.882;10.920;2022-12-29T10:21:03;9.70;1.00
6740;DHT22;3407;49.882;10.920;2022-12-29T10:26:02;9.40;1.00
6740;DHT22;3407;49.882;10.920;2022-12-29T10:31:00;9.20;93.30
6740;DHT22;3407;49.882;10.920;2022-12-29T10:35:59;9.10;1.00
6740;DHT22;3407;49.882;10.920;2022-12-29T10:41:02;9.00;99.90
6740;DHT22;3407;49.882;10.920;2022-12-29T10:46:16;8.90;99.90
6740;DHT22;3407;49.882;10.920;2022-12-29T10:51:37;8.80;99.90
6740;DHT22;3407;49.882;10.920;2022-12-29T10:56:46;8.80;99.90
6740;DHT22;3407;49.882;10.920;2022-12-29T11:06:58;8.90;1.00
6740;DHT22;3407;49.882;10.920;2022-12-29T11:11:54;8.80;99.90
6740;DHT22;3407;49.882;10.920;2022-12-29T11:17:03;8.80;1.00
6740;DHT22;3407;49.882;10.920;2022-12-29T11:27:16;9.10;99.90
6740;DHT22;3407;49.882;10.920;2022-12-29T11:37:18;9.60;99.90
6740;DHT22;3407;49.882;10.920;2022-12-29T11:42:17;9.80;1.00
6740;DHT22;3407;49.882;10.920;2022-12-29T11:47:30;10.20;85.00
6740;DHT22;3407;49.882;10.920;2022-12-29T11:52:29;10.30;99.90
6740;DHT22;3407;49.882;10.920;2022-12-29T11:57:28;10.30;1.00
6740;DHT22;3407;49.882;10.920;2022-12-29T12:02:38;10.40;1.00
6740;DHT22;3407;49.882;10.920;2022-12-29T12:07:40;10.70;1.00
6740;DHT22;3407;49.882;10.920;2022-12-29T12:12:58;10.70;99.90
6740;DHT22;3407;49.882;10.920;2022-12-29T12:18:05;10.60;99.90
6740;DHT22;3407;49.882;10.920;2022-12-29T12:23:13;10.50;99.90
6740;DHT22;3407;49.882;10.920;2022-12-29T12:33:37;10.60;99.90
6740;DHT22;3407;49.882;10.920;2022-12-29T12:38:59;10.70;1.00
6740;DHT22;3407;49.882;10.920;2022-12-29T12:54:38;10.60;1.00
6740;DHT22;3407;49.882;10.920;2022-12-29T12:59:53;10.70;1.00
6740;DHT22;3407;49.882;10.920;2022-12-29T13:21:00;11.00;1.00
6740;DHT22;3407;49.882;10.920;2022-12-29T13:26:02;11.00;1.00
6740;DHT22;3407;49.882;10.920;2022-12-29T13:31:08;11.00;99.90
6740;DHT22;3407;49.882;10.920;2022-12-29T13:36:44;11.00;1.00
6740;DHT22;3407;49.882;10.920;2022-12-29T13:41:44;10.90;99.90
6740;DHT22;3407;49.882;10.920;2022-12-29T13:46:44;11.00;99.90
6740;DHT22;3407;49.882;10.920;2022-12-29T13:51:52;10.90;99.90
6740;DHT22;3407;49.882;10.920;2022-12-29T13:57:10;11.00;1.00
6740;DHT22;3407;49.882;10.920;2022-12-29T14:07:23;11.30;99.90
6740;DHT22;3407;49.882;10.920;2022-12-29T14:12:20;11.20;1.00
6740;DHT22;3407;49.882;10.920;2022-12-29T14:17:20;11.40;1.00
6740;DHT22;3407;49.882;10.920;2022-12-29T14:22:23;11.40;1.00
6740;DHT22;3407;49.882;10.920;2022-12-29T14:37:30;11.20;1.00
6740;DHT22;3407;49.882;10.920;2022-12-29T14:42:29;11.20;76.30
6740;DHT22;3407;49.882;10.920;2022-12-29T14:52:25;11.30;1.00
6740;DHT22;3407;49.882;10.920;2022-12-29T15:02:25;11.20;99.90
6740;DHT22;3407;49.882;10.920;2022-12-29T15:07:21;11.10;1.00
6740;DHT22;3407;49.882;10.920;2022-12-29T15:12:28;10.90;1.00
6740;DHT22;3407;49.882;10.920;2022-12-29T15:17:30;10.70;26.40
6740;DHT22;3407;49.882;10.920;2022-12-29T15:22:27;10.60;99.90
6740;DHT22;3407;49.882;10.920;2022-12-29T15:27:25;10.50;99.90
6740;DHT22;3407;49.882;10.920;2022-12-29T15:32:26;10.40;26.60
6740;DHT22;3407;49.882;10.920;2022-12-29T15:37:25;10.30;99.90
6740;DHT22;3407;49.882;10.920;2022-12-29T15:42:30;10.30;99.90
6740;DHT22;3407;49.882;10.920;2022-12-29T15:47:29;10.30;1.00
6740;DHT22;3407;49.882;10.920;2022-12-29T15:52:25;10.50;99.90
6740;DHT22;3407;49.882;10.920;2022-12-29T15:57:37;10.50;99.90
6740;DHT22;3407;49.882;10.920;2022-12-29T16:02:36;10.40;99.90
6740;DHT22;3407;49.882;10.920;2022-12-29T16:07:33;10.30;1.00
6740;DHT22;3407;49.882;10.920;2022-12-29T16:12:34;10.30;1.00
6740;DHT22;3407;49.882;10.920;2022-12-29T16:17:48;10.20;1.00
6740;DHT22;3407;49.882;10.920;2022-12-29T16:22:49;10.20;99.90
6740;DHT22;3407;49.882;10.920;2022-12-29T16:27:45;10.10;99.90
6740;DHT22;3407;49.882;10.920;2022-12-29T16:32:49;10.00;99.90
6740;DHT22;3407;49.882;10.920;2022-12-29T16:37:45;9.80;1.00
6740;DHT22;3407;49.882;10.920;2022-12-29T16:42:45;9.50;1.00
6740;DHT22;3407;49.882;10.920;2022-12-29T16:47:41;9.20;9.50
6740;DHT22;3407;49.882;10.920;2022-12-29T16:52:37;9.00;24.60
6740;DHT22;3407;49.882;10.920;2022-12-29T16:57:35;8.80;42.20
6740;DHT22;3407;49.882;10.920;2022-12-29T17:02:32;8.70;54.20
6740;DHT22;3407;49.882;10.920;2022-12-29T17:07:29;8.60;60.50
6740;DHT22;3407;49.882;10.920;2022-12-29T17:12:28;8.50;67.50
6740;DHT22;3407;49.882;10.920;2022-12-29T17:22:25;8.40;74.70
6740;DHT22;3407;49.882;10.920;2022-12-29T17:27:28;8.30;78.10
6740;DHT22;3407;49.882;10.920;2022-12-29T17:32:24;8.30;78.20
6740;DHT22;3407;49.882;10.920;2022-12-29T17:42:18;8.20;81.30
6740;DHT22;3407;49.882;10.920;2022-12-29T17:47:14;8.10;80.60
6740;DHT22;3407;49.882;10.920;2022-12-29T17:52:15;8.00;81.20
6740;DHT22;3407;49.882;10.920;2022-12-29T17:57:13;8.00;82.40
6740;DHT22;3407;49.882;10.920;2022-12-29T18:02:29;7.90;82.80
6740;DHT22;3407;49.882;10.920;2022-12-29T18:07:28;7.80;83.20
6740;DHT22;3407;49.882;10.920;2022-12-29T18:12:32;7.70;83.80
6740;DHT22;3407;49.882;10.920;2022-12-29T18:17:30;7.60;84.00
6740;DHT22;3407;49.882;10.920;2022-12-29T18:22:25;7.50;84.70
6740;DHT22;3407;49.882;10.920;2022-12-29T18:27:23;7.40;86.70
6740;DHT22;3407;49.882;10.920;2022-12-29T18:32:18;7.40;88.80
6740;DHT22;3407;49.882;10.920;2022-12-29T18:37:15;7.50;90.40
6740;DHT22;3407;49.882;10.920;2022-12-29T18:42:15;7.50;90.60
6740;DHT22;3407;49.882;10.920;2022-12-29T18:47:11;7.50;90.30
6740;DHT22;3407;49.882;10.920;2022-12-29T18:52:11;7.40;90.40
6740;DHT22;3407;49.882;10.920;2022-12-29T18:57:07;7.40;90.70
6740;DHT22;3407;49.882;10.920;2022-12-29T19:02:02;7.50;91.50
6740;DHT22;3407;49.882;10.920;2022-12-29T19:06:58;7.50;91.50
6740;DHT22;3407;49.882;10.920;2022-12-29T19:11:53;7.60;91.00
6740;DHT22;3407;49.882;10.920;2022-12-29T19:16:49;7.60;90.10
6740;DHT22;3407;49.882;10.920;2022-12-29T19:21:44;7.60;89.10
6740;DHT22;3407;49.882;10.920;2022-12-29T19:26:40;7.60;88.70
6740;DHT22;3407;49.882;10.920;2022-12-29T19:31:36;7.60;87.40
6740;DHT22;3407;49.882;10.920;2022-12-29T19:36:32;7.60;87.10
6740;DHT22;3407;49.882;10.920;2022-12-29T19:41:28;7.60;86.70
6740;DHT22;3407;49.882;10.920;2022-12-29T19:46:24;7.60;87.80
6740;DHT22;3407;49.882;10.920;2022-12-29T19:51:19;7.60;88.20
6740;DHT22;3407;49.882;10.920;2022-12-29T19:56:15;7.60;87.80
6740;DHT22;3407;49.882;10.920;2022-12-29T20:01:17;7.60;87.70
6740;DHT22;3407;49.882;10.920;2022-12-29T20:06:14;7.60;87.50
6740;DHT22;3407;49.882;10.920;2022-12-29T20:11:16;7.60;90.60
6740;DHT22;3407;49.882;10.920;2022-12-29T20:16:14;7.70;91.90
6740;DHT22;3407;49.882;10.920;2022-12-29T20:21:15;7.80;90.70
6740;DHT22;3407;49.882;10.920;2022-12-29T20:26:16;7.80;90.20
6740;DHT22;3407;49.882;10.920;2022-12-29T20:36:17;7.80;90.80
6740;DHT22;3407;49.882;10.920;2022-12-29T20:41:14;7.80;90.70
6740;DHT22;3407;49.882;10.920;2022-12-29T20:46:10;7.80;91.00
6740;DHT22;3407;49.882;10.920;2022-12-29T20:51:09;7.80;91.60
6740;DHT22;3407;49.882;10.920;2022-12-29T20:56:09;7.80;91.60
6740;DHT22;3407;49.882;10.920;2022-12-29T21:01:07;7.70;91.80
6740;DHT22;3407;49.882;10.920;2022-12-29T21:06:03;7.70;92.40
6740;DHT22;3407;49.882;10.920;2022-12-29T21:11:01;7.70;92.90
6740;DHT22;3407;49.882;10.920;2022-12-29T21:16:00;7.70;92.90
6740;DHT22;3407;49.882;10.920;2022-12-29T21:21:08;7.70;93.20
6740;DHT22;3407;49.882;10.920;2022-12-29T21:26:12;7.60;93.30
6740;DHT22;3407;49.882;10.920;2022-12-29T21:31:10;7.60;93.60
6740;DHT22;3407;49.882;10.920;2022-12-29T21:36:07;7.70;93.90
6740;DHT22;3407;49.882;10.920;2022-12-29T21:41:04;7.60;93.80
6740;DHT22;3407;49.882;10.920;2022-12-29T21:46:01;7.70;93.80
6740;DHT22;3407;49.882;10.920;2022-12-29T21:51:08;7.70;94.00
6740;DHT22;3407;49.882;10.920;2022-12-29T21:56:23;7.70;94.00
6740;DHT22;3407;49.882;10.920;2022-12-29T22:01:21;7.70;94.10
6740;DHT22;3407;49.882;10.920;2022-12-29T22:06:35;7.80;94.10
6740;DHT22;3407;49.882;10.920;2022-12-29T22:11:50;7.80;93.20
6740;DHT22;3407;49.882;10.920;2022-12-29T22:17:04;7.70;92.20
6740;DHT22;3407;49.882;10.920;2022-12-29T22:21:59;7.70;92.10
6740;DHT22;3407;49.882;10.920;2022-12-29T22:26:55;7.70;91.50
6740;DHT22;3407;49.882;10.920;2022-12-29T22:31:51;7.70;90.60
6740;DHT22;3407;49.882;10.920;2022-12-29T22:36:46;7.70;90.30
6740;DHT22;3407;49.882;10.920;2022-12-29T22:41:42;7.60;90.00
6740;DHT22;3407;49.882;10.920;2022-12-29T22:46:38;7.60;90.00
6740;DHT22;3407;49.882;10.920;2022-12-29T22:51:33;7.60;90.40
6740;DHT22;3407;49.882;10.920;2022-12-29T22:56:29;7.60;90.30
6740;DHT22;3407;49.882;10.920;2022-12-29T23:01:24;7.80;89.50
6740;DHT22;3407;49.882;10.920;2022-12-29T23:06:20;7.50;89.80
6740;DHT22;3407;49.882;10.920;2022-12-29T23:11:16;7.50;90.00
6740;DHT22;3407;49.882;10.920;2022-12-29T23:16:12;7.40;89.00
6740;DHT22;3407;49.882;10.920;2022-12-29T23:21:08;7.40;87.90
6740;DHT22;3407;49.882;10.920;2022-12-29T23:26:04;7.40;90.00
6740;DHT22;3407;49.882;10.920;2022-12-29T23:31:00;7.40;90.80
6740;DHT22;3407;49.882;10.920;2022-12-29T23:35:56;7.40;91.20
6740;DHT22;3407;49.882;10.920;2022-12-29T23:40:51;7.40;91.20
6740;DHT22;3407;49.882;10.920;2022-12-29T23:45:47;7.40;91.40
6740;DHT22;3407;49.882;10.920;2022-12-29T23:50:42;7.40;91.50
6740;DHT22;3407;49.882;10.920;2022-12-29T23:55:40;7.40;91.50
